Time;durP1;ratioP1;P1;durP2;ratioP2;P2;SDS_P1;SDS_P2;PMS_P1;PMS_P2;Temp;Humidity;BMP_temperature;BMP_pressure;BME280_temperature;BME280_humidity;BME280_pressure;Samples;Min_cycle;Max_cycle;Signal;HPM_P1;HPM_P2
2023/04/26 00:02:12;;;;;;;;;;;;;;;;;;5056210;28;19916;-69
2023/04/26 00:04:38;;;;;;;;;;;;;;;;;;5054866;28;19909;-69
2023/04/26 00:07:05;;;;;;;;;;;;;;;;;;5054432;28;19963;-70
2023/04/26 00:09:31;;;;;;;;;;;;;;;;;;5056024;28;20294;-69
2023/04/26 00:11:57;;;;;;;;;;;;;;;;;;5055757;28;20264;-69
2023/04/26 00:14:23;;;;;;;;;;;;;;;;;;5055910;28;20321;-69
2023/04/26 00:16:49;;;;;;;;;;;;;;;;;;5055947;28;19978;-69
2023/04/26 00:19:16;;;;;;;;;;;;;;;;;;5055495;28;19909;-69
2023/04/26 00:21:42;;;;;;;;;;;;;;;;;;5055831;28;19970;-69
2023/04/26 00:24:08;;;;;;;;;;;;;;;;;;5055586;28;19908;-69
2023/04/26 00:26:34;;;;;;;;;;;;;;;;;;5055072;28;19921;-69
2023/04/26 00:29:00;;;;;;;;;;;;;;;;;;5055622;28;19908;-69
2023/04/26 00:31:26;;;;;;;;;;;;;;;;;;5055585;28;19913;-69
2023/04/26 00:33:52;;;;;;;;;;;;;;;;;;5055358;28;20254;-69
2023/04/26 00:36:19;;;;;;;;;;;;;;;;;;5055490;28;20441;-69
2023/04/26 00:38:45;;;;;;;;;;;;;;;;;;5055520;28;20288;-67
2023/04/26 00:41:11;;;;;;;;;;;;;;;;;;5053799;28;19970;-69
2023/04/26 00:43:38;;;;;;;;;;;;;;;;;;5055391;28;19999;-69
2023/04/26 00:46:04;;;;;;;;;;;;;;;;;;5055241;28;20004;-69
2023/04/26 00:48:30;;;;;;;;;;;;;;;;;;5054943;28;20390;-69
2023/04/26 00:50:56;;;;;;;;;;;;;;;;;;5055191;28;19913;-69
2023/04/26 00:53:22;;;;;;;;;;;;;;;;;;5055412;28;19963;-68
2023/04/26 00:55:50;;;;;;;;;;;;;;;;;;5054875;28;19916;-68
2023/04/26 00:58:17;;;;;;;;;;;;;;;;;;5055152;28;20118;-68
2023/04/26 01:00:43;;;;;;;;;;;;;;;;;;5055024;28;20390;-69
2023/04/26 01:03:09;;;;;;;;;;;;;;;;;;5054594;28;19909;-69
2023/04/26 01:05:35;;;;;;;;;;;;;;;;;;5055219;28;19909;-68
2023/04/26 01:08:03;;;;;;;;;;;;;;;;;;5054843;28;19940;-68
2023/04/26 01:10:29;;;;;;;;;;;;;;;;;;5054448;28;19912;-68
2023/04/26 01:12:56;;;;;;;;;;;;;;;;;;5054852;28;19962;-69
2023/04/26 01:15:22;;;;;;;;;;;;;;;;;;5053055;28;19915;-69
2023/04/26 01:17:49;;;;;;;;;;;;;;;;;;5054612;28;19909;-69
2023/04/26 01:20:15;;;;;;;;;;;;;;;;;;5054641;28;20387;-69
2023/04/26 01:22:41;;;;;;;;;;;;;;;;;;5054239;28;19909;-69
2023/04/26 01:25:07;;;;;;;;;;;;;;;;;;5053268;28;19908;-69
2023/04/26 01:27:33;;;;;;;;;;;;;;;;;;5054286;28;19971;-69
2023/04/26 01:29:59;;;;;;;;;;;;;;;;;;5054113;28;20330;-69
2023/04/26 01:32:25;;;;;;;;;;;;;;;;;;5054985;28;19909;-69
2023/04/26 01:34:51;;;;;;;;;;;;;;;;;;5054443;28;20396;-69
2023/04/26 01:37:17;;;;;;;;;;;;;;;;;;5053515;28;19909;-69
2023/04/26 01:39:43;;;;;;;;;;;;;;;;;;5054301;28;19915;-69
2023/04/26 01:42:09;;;;;;;;;;;;;;;;;;5054495;28;19944;-69
2023/04/26 01:44:35;;;;;;;;;;;;;;;;;;5052621;28;19908;-69
2023/04/26 01:47:01;;;;;;;;;;;;;;;;;;5052863;28;19917;-69
2023/04/26 01:49:27;;;;;;;;;;;;;;;;;;5052895;28;19916;-69
2023/04/26 01:51:53;;;;;;;;;;;;;;;;;;5053613;28;19909;-69
2023/04/26 01:54:19;;;;;;;;;;;;;;;;;;5054115;28;19909;-69
2023/04/26 01:56:45;;;;;;;;;;;;;;;;;;5054065;28;20377;-69
2023/04/26 01:59:11;;;;;;;;;;;;;;;;;;5053867;28;19916;-69
2023/04/26 02:01:36;;;;;;;;;;;;;;;;;;5054064;28;20357;-70
2023/04/26 02:04:03;;;;;;;;;;;;;;;;;;5052606;28;20365;-70
2023/04/26 02:06:30;;;;;;;;;;;;;;;;;;5053417;28;20241;-69
2023/04/26 02:08:56;;;;;;;;;;;;;;;;;;5054138;28;19913;-69
2023/04/26 02:11:23;;;;;;;;;;;;;;;;;;5053853;28;20016;-69
2023/04/26 02:13:49;;;;;;;;;;;;;;;;;;5053450;28;19908;-69
2023/04/26 02:16:15;;;;;;;;;;;;;;;;;;5053948;28;20384;-69
2023/04/26 02:18:41;;;;;;;;;;;;;;;;;;5053397;28;19908;-69
2023/04/26 02:21:08;;;;;;;;;;;;;;;;;;5053731;28;20388;-69
2023/04/26 02:23:34;;;;;;;;;;;;;;;;;;5052476;28;19920;-69
2023/04/26 02:25:59;;;;;;;;;;;;;;;;;;5053106;28;19951;-69
2023/04/26 02:28:26;;;;;;;;;;;;;;;;;;5053683;28;19932;-69
2023/04/26 02:30:51;;;;;;;;;;;;;;;;;;5053660;28;19909;-69
2023/04/26 02:33:17;;;;;;;;;;;;;;;;;;5053251;28;20379;-70
2023/04/26 02:35:43;;;;;;;;;;;;;;;;;;5054085;28;20344;-70
2023/04/26 02:38:09;;;;;;;;;;;;;;;;;;5053603;28;19916;-69
2023/04/26 02:40:35;;;;;;;;;;;;;;;;;;5053121;28;20008;-69
2023/04/26 02:43:01;;;;;;;;;;;;;;;;;;5053493;28;19909;-69
2023/04/26 02:45:27;;;;;;;;;;;;;;;;;;5053486;28;19941;-69
2023/04/26 02:47:53;;;;;;;;;;;;;;;;;;5052316;28;19927;-70
2023/04/26 02:50:19;;;;;;;;;;;;;;;;;;5057450;28;19909;-69
2023/04/26 02:52:45;;;;;;;;;;;;;;;;;;5056188;28;20366;-69
2023/04/26 02:55:11;;;;;;;;;;;;;;;;;;5057000;28;19916;-69
2023/04/26 02:57:37;;;;;;;;;;;;;;;;;;5057533;28;20428;-69
2023/04/26 03:00:04;;;;;;;;;;;;;;;;;;5057271;28;19999;-70
2023/04/26 03:02:30;;;;;;;;;;;;;;;;;;5055505;28;19909;-69
2023/04/26 03:04:56;;;;;;;;;;;;;;;;;;5057199;28;19919;-69
2023/04/26 03:07:22;;;;;;;;;;;;;;;;;;5057088;28;19923;-69
2023/04/26 03:09:48;;;;;;;;;;;;;;;;;;5056703;28;20003;-69
2023/04/26 03:12:14;;;;;;;;;;;;;;;;;;5057092;28;19909;-69
2023/04/26 03:14:39;;;;;;;;;;;;;;;;;;5057259;28;19915;-69
2023/04/26 03:17:05;;;;;;;;;;;;;;;;;;5056625;28;19947;-69
2023/04/26 03:19:31;;;;;;;;;;;;;;;;;;5055594;28;19959;-69
2023/04/26 03:21:57;;;;;;;;;;;;;;;;;;5056688;28;19913;-69
2023/04/26 03:24:23;;;;;;;;;;;;;;;;;;5056856;28;19913;-69
2023/04/26 03:26:49;;;;;;;;;;;;;;;;;;5056568;28;20296;-69
2023/04/26 03:29:15;;;;;;;;;;;;;;;;;;5056341;28;19913;-69
2023/04/26 03:31:41;;;;;;;;;;;;;;;;;;5056702;28;19909;-69
2023/04/26 03:34:08;;;;;;;;;;;;;;;;;;5056785;28;20000;-69
2023/04/26 03:36:33;;;;;;;;;;;;;;;;;;5056253;28;19949;-69
2023/04/26 03:38:59;;;;;;;;;;;;;;;;;;5057168;28;20304;-69
2023/04/26 03:41:25;;;;;;;;;;;;;;;;;;5056678;28;19940;-69
2023/04/26 03:43:51;;;;;;;;;;;;;;;;;;5056156;28;19987;-70
2023/04/26 03:46:17;;;;;;;;;;;;;;;;;;5056524;28;19917;-70
2023/04/26 03:48:43;;;;;;;;;;;;;;;;;;5056456;28;20018;-70
2023/04/26 03:51:09;;;;;;;;;;;;;;;;;;5056064;28;19916;-69
2023/04/26 03:53:35;;;;;;;;;;;;;;;;;;5055097;28;20373;-69
2023/04/26 03:56:01;;;;;;;;;;;;;;;;;;5056340;28;19909;-69
2023/04/26 03:58:27;;;;;;;;;;;;;;;;;;5055640;28;19948;-69
2023/04/26 04:00:53;;;;;;;;;;;;;;;;;;5056075;28;20365;-70
2023/04/26 04:03:20;;;;;;;;;;;;;;;;;;5056539;28;19949;-70
2023/04/26 04:05:46;;;;;;;;;;;;;;;;;;5055759;28;19995;-70
2023/04/26 04:08:12;;;;;;;;;;;;;;;;;;5056059;28;20003;-70
2023/04/26 04:10:38;;;;;;;;;;;;;;;;;;5054763;28;19909;-69
2023/04/26 04:13:03;;;;;;;;;;;;;;;;;;5055540;28;20273;-69
2023/04/26 04:15:36;;;;;;;;;;;;;;;;;;5055912;28;20383;-70
2023/04/26 04:18:02;;;;;;;;;;;;;;;;;;5055877;28;19915;-68
2023/04/26 04:20:28;;;;;;;;;;;;;;;;;;5055805;28;19915;-69
2023/04/26 04:22:54;;;;;;;;;;;;;;;;;;5055581;28;19908;-70
2023/04/26 04:25:21;;;;;;;;;;;;;;;;;;5055576;28;20281;-70
2023/04/26 04:27:47;;;;;;;;;;;;;;;;;;5055390;28;19922;-71
2023/04/26 04:30:13;;;;;;;;;;;;;;;;;;5054158;28;19909;-70
2023/04/26 04:32:41;;;;;;;;;;;;;;;;;;5054744;28;19909;-70
2023/04/26 04:35:07;;;;;;;;;;;;;;;;;;5055524;28;19913;-68
2023/04/26 04:37:33;;;;;;;;;;;;;;;;;;5054226;28;19908;-67
2023/04/26 04:39:59;;;;;;;;;;;;;;;;;;5055028;28;20480;-68
2023/04/26 04:42:28;;;;;;;;;;;;;;;;;;5054449;28;20222;-69
2023/04/26 04:44:54;;;;;;;;;;;;;;;;;;5055386;28;19997;-68
2023/04/26 04:47:20;;;;;;;;;;;;;;;;;;5053200;28;19960;-68
2023/04/26 04:49:46;;;;;;;;;;;;;;;;;;5054996;28;19912;-68
2023/04/26 04:52:12;;;;;;;;;;;;;;;;;;5055195;28;20050;-69
2023/04/26 04:54:38;;;;;;;;;;;;;;;;;;5052608;28;19932;-68
2023/04/26 04:57:04;;;;;;;;;;;;;;;;;;5054521;28;20003;-68
2023/04/26 04:59:30;;;;;;;;;;;;;;;;;;5054222;28;19909;-68
2023/04/26 05:01:56;;;;;;;;;;;;;;;;;;5051174;28;19982;-68
2023/04/26 05:04:22;;;;;;;;;;;;;;;;;;5052834;28;19932;-69
2023/04/26 05:06:48;;;;;;;;;;;;;;;;;;5051479;28;20344;-69
2023/04/26 05:09:14;;;;;;;;;;;;;;;;;;5052504;28;20277;-69
2023/04/26 05:11:40;;;;;;;;;;;;;;;;;;5052042;28;19970;-69
2023/04/26 05:14:06;;;;;;;;;;;;;;;;;;5052685;28;19913;-69
2023/04/26 05:16:32;;;;;;;;;;;;;;;;;;5053931;28;19952;-65
2023/04/26 05:18:57;;;;;;;;;;;;;;;;;;5053422;28;19936;-67
2023/04/26 05:21:23;;;;;;;;;;;;;;;;;;5051987;28;19913;-67
2023/04/26 05:23:49;;;;;;;;;;;;;;;;;;5053478;28;20569;-71
2023/04/26 05:26:15;;;;;;;;;;;;;;;;;;5044867;28;20344;-66
2023/04/26 05:28:41;;;;;;;;;;;;;;;;;;5038584;28;20285;-66
2023/04/26 05:31:07;;;;;;;;;;;;;;;;;;5051048;28;20012;-67
2023/04/26 05:33:33;;;;;;;;;;;;;;;;;;5045576;28;19913;-67
2023/04/26 05:36:00;;;;;;;;;;;;;;;;;;5046457;28;19921;-68
2023/04/26 05:38:26;;;;;;;;;;;;;;;;;;5043689;28;19916;-66
2023/04/26 05:40:52;;;;;;;;;;;;;;;;;;5048077;28;20382;-67
2023/04/26 05:43:18;;;;;;;;;;;;;;;;;;5058130;28;20454;-66
2023/04/26 05:45:44;;;;;;;;;;;;;;;;;;5054656;28;20030;-66
2023/04/26 05:48:11;;;;;;;;;;;;;;;;;;5065372;28;19920;-66
2023/04/26 05:50:37;;;;;;;;;;;;;;;;;;5054278;28;19999;-66
2023/04/26 05:53:03;;;;;;;;;;;;;;;;;;5053348;28;20011;-67
2023/04/26 05:55:29;;;;;;;;;;;;;;;;;;5050524;28;19959;-67
2023/04/26 05:57:55;;;;;;;;;;;;;;;;;;5067111;28;19909;-65
2023/04/26 06:00:22;;;;;;;;;;;;;;;;;;5049615;28;19919;-65
2023/04/26 06:02:48;;;;;;;;;;;;;;;;;;5049667;28;21641;-65
2023/04/26 06:05:14;;;;;;;;;;;;;;;;;;5057299;28;19996;-66
2023/04/26 06:07:40;;;;;;;;;;;;;;;;;;5050027;28;20054;-65
2023/04/26 06:10:06;;;;;;;;;;;;;;;;;;5048091;28;19999;-66
2023/04/26 06:12:32;;;;;;;;;;;;;;;;;;5050100;28;19912;-65
2023/04/26 06:14:59;;;;;;;;;;;;;;;;;;5050608;28;19967;-65
2023/04/26 06:17:25;;;;;;;;;;;;;;;;;;5049517;28;19913;-66
2023/04/26 06:19:52;;;;;;;;;;;;;;;;;;5051562;28;19913;-66
2023/04/26 06:22:18;;;;;;;;;;;;;;;;;;5050002;28;19913;-64
2023/04/26 06:24:44;;;;;;;;;;;;;;;;;;5051577;28;19909;-66
2023/04/26 06:27:10;;;;;;;;;;;;;;;;;;5051437;28;19978;-65
2023/04/26 06:29:36;;;;;;;;;;;;;;;;;;5052230;28;19960;-65
2023/04/26 06:32:02;;;;;;;;;;;;;;;;;;5050860;28;20490;-65
2023/04/26 06:34:28;;;;;;;;;;;;;;;;;;5052368;28;19920;-66
2023/04/26 06:36:54;;;;;;;;;;;;;;;;;;5052281;28;19916;-64
2023/04/26 06:39:20;;;;;;;;;;;;;;;;;;5054498;28;20361;-66
2023/04/26 06:41:46;;;;;;;;;;;;;;;;;;5056811;28;19917;-65
2023/04/26 06:44:11;;;;;;;;;;;;;;;;;;5054596;28;20411;-65
2023/04/26 06:46:37;;;;;;;;;;;;;;;;;;5051965;28;20683;-65
2023/04/26 06:49:03;;;;;;;;;;;;;;;;;;5049790;28;20381;-66
2023/04/26 06:51:30;;;;;;;;;;;;;;;;;;5051255;28;20023;-65
2023/04/26 06:53:59;;;;;;;;;;;;;;;;;;5048474;28;19991;-64
2023/04/26 06:56:25;;;;;;;;;;;;;;;;;;5054739;28;19912;-65
2023/04/26 06:58:51;;;;;;;;;;;;;;;;;;5050601;28;19909;-65
2023/04/26 07:01:17;;;;;;;;;;;;;;;;;;5050342;28;19931;-65
2023/04/26 07:03:43;;;;;;;;;;;;;;;;;;5050192;28;19948;-65
2023/04/26 07:06:09;;;;;;;;;;;;;;;;;;5050073;28;20019;-66
2023/04/26 07:08:36;;;;;;;;;;;;;;;;;;5049560;28;20003;-66
2023/04/26 07:11:02;;;;;;;;;;;;;;;;;;5049920;28;19912;-68
2023/04/26 07:13:28;;;;;;;;;;;;;;;;;;5049903;28;19916;-68
2023/04/26 07:15:54;;;;;;;;;;;;;;;;;;5048923;28;19913;-68
2023/04/26 07:18:25;;;;;;;;;;;;;;;;;;5046038;28;19909;-67
2023/04/26 07:20:51;;;;;;;;;;;;;;;;;;5057036;28;20135;-67
2023/04/26 07:23:17;;;;;;;;;;;;;;;;;;5050065;28;19924;-67
2023/04/26 07:25:43;;;;;;;;;;;;;;;;;;5049594;28;19916;-67
2023/04/26 07:28:10;;;;;;;;;;;;;;;;;;5049618;28;20112;-67
2023/04/26 07:30:36;;;;;;;;;;;;;;;;;;5049554;28;19916;-66
2023/04/26 07:33:02;;;;;;;;;;;;;;;;;;5048652;28;19913;-66
2023/04/26 07:35:28;;;;;;;;;;;;;;;;;;5044630;28;20276;-66
2023/04/26 07:37:54;;;;;;;;;;;;;;;;;;5063612;28;19930;-65
2023/04/26 07:40:21;;;;;;;;;;;;;;;;;;5062116;28;19919;-67
2023/04/26 07:42:47;;;;;;;;;;;;;;;;;;5049475;28;19909;-67
2023/04/26 07:45:13;;;;;;;;;;;;;;;;;;5053109;28;19920;-67
2023/04/26 07:47:39;;;;;;;;;;;;;;;;;;5053577;28;20012;-67
2023/04/26 07:50:05;;;;;;;;;;;;;;;;;;5054286;28;19913;-66
2023/04/26 07:52:31;;;;;;;;;;;;;;;;;;5054707;28;19909;-67
2023/04/26 07:54:57;;;;;;;;;;;;;;;;;;5055562;28;19971;-67
2023/04/26 07:57:23;;;;;;;;;;;;;;;;;;5051765;28;20301;-67
2023/04/26 07:59:49;;;;;;;;;;;;;;;;;;5045435;28;19924;-67
2023/04/26 08:02:15;;;;;;;;;;;;;;;;;;5053773;28;19923;-66
2023/04/26 08:04:41;;;;;;;;;;;;;;;;;;5052568;28;20435;-64
2023/04/26 08:07:07;;;;;;;;;;;;;;;;;;5048776;28;19924;-66
2023/04/26 08:09:33;;;;;;;;;;;;;;;;;;5052121;28;20319;-65
2023/04/26 08:12:00;;;;;;;;;;;;;;;;;;5053189;28;19913;-66
2023/04/26 08:14:26;;;;;;;;;;;;;;;;;;5051221;28;19912;-66
2023/04/26 08:16:52;;;;;;;;;;;;;;;;;;5050422;28;19913;-66
2023/04/26 08:19:18;;;;;;;;;;;;;;;;;;5050835;28;19912;-67
2023/04/26 08:21:44;;;;;;;;;;;;;;;;;;5048352;28;19927;-67
2023/04/26 08:24:10;;;;;;;;;;;;;;;;;;5051887;28;19924;-68
2023/04/26 08:26:36;;;;;;;;;;;;;;;;;;5050766;28;19956;-67
2023/04/26 08:29:02;;;;;;;;;;;;;;;;;;5052451;28;19912;-65
2023/04/26 08:31:28;;;;;;;;;;;;;;;;;;5050811;28;19955;-66
2023/04/26 08:33:53;;;;;;;;;;;;;;;;;;5051222;28;19913;-68
2023/04/26 08:36:20;;;;;;;;;;;;;;;;;;5054155;28;19913;-66
2023/04/26 08:38:46;;;;;;;;;;;;;;;;;;5052455;28;20285;-67
2023/04/26 08:41:15;;;;;;;;;;;;;;;;;;5051074;28;19934;-66
2023/04/26 08:43:41;;;;;;;;;;;;;;;;;;5052236;28;20432;-66
2023/04/26 08:46:07;;;;;;;;;;;;;;;;;;5051683;28;20031;-66
2023/04/26 08:48:33;;;;;;;;;;;;;;;;;;5053886;28;19921;-66
2023/04/26 08:50:59;;;;;;;;;;;;;;;;;;5051431;28;19920;-66
2023/04/26 08:53:25;;;;;;;;;;;;;;;;;;5051516;28;19920;-66
2023/04/26 08:55:51;;;;;;;;;;;;;;;;;;5051405;28;19913;-66
2023/04/26 08:58:17;;;;;;;;;;;;;;;;;;5052016;28;20004;-66
2023/04/26 09:00:51;;;;;;;;;;;;;;;;;;5052873;28;19909;-66
2023/04/26 09:03:17;;;;;;;;;;;;;;;;;;5054122;28;19909;-67
2023/04/26 09:05:44;;;;;;;;;;;;;;;;;;5053275;28;19913;-66
2023/04/26 09:08:10;;;;;;;;;;;;;;;;;;5052901;28;20395;-67
2023/04/26 09:10:36;;;;;;;;;;;;;;;;;;5053233;28;19920;-65
2023/04/26 09:13:02;;;;;;;;;;;;;;;;;;5051739;28;19916;-66
2023/04/26 09:15:28;;;;;;;;;;;;;;;;;;5053024;28;19952;-67
2023/04/26 09:17:54;;;;;;;;;;;;;;;;;;5052585;28;20039;-64
2023/04/26 09:20:21;;;;;;;;;;;;;;;;;;5051384;28;20373;-66
2023/04/26 09:22:47;;;;;;;;;;;;;;;;;;5052443;28;19917;-66
2023/04/26 09:25:15;;;;;;;;;;;;;;;;;;5061422;28;20369;-66
2023/04/26 09:27:42;;;;;;;;;;;;;;;;;;5065227;28;19921;-66
2023/04/26 09:30:09;;;;;;;;;;;;;;;;;;5059387;28;19912;-66
2023/04/26 09:32:35;;;;;;;;;;;;;;;;;;5050117;28;19912;-66
2023/04/26 09:35:01;;;;;;;;;;;;;;;;;;5051163;28;20392;-66
2023/04/26 09:37:27;;;;;;;;;;;;;;;;;;5049216;28;20403;-66
2023/04/26 09:39:52;;;;;;;;;;;;;;;;;;5046681;28;20424;-66
2023/04/26 09:42:18;;;;;;;;;;;;;;;;;;5043678;28;20401;-66
2023/04/26 09:45:04;;;;;;;;;;;;;;;;;;5063245;28;19912;-67
2023/04/26 09:47:30;;;;;;;;;;;;;;;;;;5062251;28;19920;-67
2023/04/26 09:49:56;;;;;;;;;;;;;;;;;;5049081;28;19921;-68
2023/04/26 09:52:25;;;;;;;;;;;;;;;;;;5050600;28;19921;-68
2023/04/26 09:54:51;;;;;;;;;;;;;;;;;;5053876;28;19970;-66
2023/04/26 09:57:18;;;;;;;;;;;;;;;;;;5047594;28;20016;-66
2023/04/26 09:59:44;;;;;;;;;;;;;;;;;;5051762;28;19912;-66
2023/04/26 10:02:10;;;;;;;;;;;;;;;;;;5051454;28;19921;-66
2023/04/26 10:04:36;;;;;;;;;;;;;;;;;;5051003;28;19966;-66
2023/04/26 10:07:03;;;;;;;;;;;;;;;;;;5051478;28;20544;-67
2023/04/26 10:09:29;;;;;;;;;;;;;;;;;;5049959;28;20421;-66
2023/04/26 10:11:55;;;;;;;;;;;;;;;;;;5050377;28;19947;-66
2023/04/26 10:14:21;;;;;;;;;;;;;;;;;;5050276;28;19935;-64
2023/04/26 10:16:47;;;;;;;;;;;;;;;;;;5053106;28;20682;-66
2023/04/26 10:19:13;;;;;;;;;;;;;;;;;;5062558;28;20407;-66
2023/04/26 10:21:39;;;;;;;;;;;;;;;;;;5057080;28;19913;-65
2023/04/26 10:24:05;;;;;;;;;;;;;;;;;;5068016;28;19913;-66
2023/04/26 10:26:31;;;;;;;;;;;;;;;;;;5050788;28;19981;-64
2023/04/26 10:28:57;;;;;;;;;;;;;;;;;;5047645;28;19917;-66
2023/04/26 10:31:23;;;;;;;;;;;;;;;;;;5049183;28;19974;-65
2023/04/26 10:33:49;;;;;;;;;;;;;;;;;;5051314;28;20007;-65
2023/04/26 10:36:16;;;;;;;;;;;;;;;;;;5054247;28;19920;-65
2023/04/26 10:38:42;;;;;;;;;;;;;;;;;;5048489;28;20001;-64
2023/04/26 10:41:09;;;;;;;;;;;;;;;;;;5048520;28;19975;-65
2023/04/26 10:43:41;;;;;;;;;;;;;;;;;;5050933;28;19916;-65
2023/04/26 10:46:07;;;;;;;;;;;;;;;;;;5052105;28;19916;-65
2023/04/26 10:48:33;;;;;;;;;;;;;;;;;;5051631;28;20365;-65
2023/04/26 10:51:11;;;;;;;;;;;;;;;;;;5051392;28;19967;-65
2023/04/26 10:53:37;;;;;;;;;;;;;;;;;;5040491;28;19923;-67
2023/04/26 10:56:03;;;;;;;;;;;;;;;;;;5047540;28;19913;-68
2023/04/26 10:58:29;;;;;;;;;;;;;;;;;;5048542;28;19952;-67
2023/04/26 11:00:55;;;;;;;;;;;;;;;;;;5047207;28;19956;-67
2023/04/26 11:03:21;;;;;;;;;;;;;;;;;;5048900;28;19959;-68
2023/04/26 11:05:47;;;;;;;;;;;;;;;;;;5047748;28;19913;-65
2023/04/26 11:08:13;;;;;;;;;;;;;;;;;;5050585;28;19947;-65
2023/04/26 11:10:39;;;;;;;;;;;;;;;;;;5054749;28;19919;-65
2023/04/26 11:13:05;;;;;;;;;;;;;;;;;;5055486;28;19909;-64
2023/04/26 11:15:31;;;;;;;;;;;;;;;;;;5053695;28;19913;-64
2023/04/26 11:17:57;;;;;;;;;;;;;;;;;;5053035;28;19909;-63
2023/04/26 11:20:23;;;;;;;;;;;;;;;;;;5053723;28;19920;-62
2023/04/26 11:22:50;;;;;;;;;;;;;;;;;;5055957;28;20000;-63
2023/04/26 11:25:16;;;;;;;;;;;;;;;;;;5056071;28;20078;-63
2023/04/26 11:27:42;;;;;;;;;;;;;;;;;;5055257;28;20433;-62
2023/04/26 11:30:08;;;;;;;;;;;;;;;;;;5055833;28;20353;-62
2023/04/26 11:32:34;;;;;;;;;;;;;;;;;;5055233;28;19913;-63
2023/04/26 11:35:00;;;;;;;;;;;;;;;;;;5055457;28;19909;-65
2023/04/26 11:37:26;;;;;;;;;;;;;;;;;;5055729;28;19912;-62
2023/04/26 11:39:52;;;;;;;;;;;;;;;;;;5055671;28;19916;-64
2023/04/26 11:42:18;;;;;;;;;;;;;;;;;;5054265;28;19913;-63
2023/04/26 11:44:45;;;;;;;;;;;;;;;;;;5052113;28;20380;-67
2023/04/26 11:47:11;;;;;;;;;;;;;;;;;;5046306;28;20002;-67
2023/04/26 11:49:37;;;;;;;;;;;;;;;;;;5063980;28;19986;-69
2023/04/26 11:52:03;;;;;;;;;;;;;;;;;;5059638;28;19912;-66
2023/04/26 11:54:30;;;;;;;;;;;;;;;;;;5053551;28;20289;-67
2023/04/26 11:56:56;;;;;;;;;;;;;;;;;;5053609;28;20123;-67
2023/04/26 11:59:22;;;;;;;;;;;;;;;;;;5053200;28;19908;-66
2023/04/26 12:01:48;;;;;;;;;;;;;;;;;;5052662;28;20316;-66
2023/04/26 12:04:14;;;;;;;;;;;;;;;;;;5053644;28;19915;-67
2023/04/26 12:06:40;;;;;;;;;;;;;;;;;;5052130;28;19975;-66
2023/04/26 12:09:08;;;;;;;;;;;;;;;;;;5050426;28;19921;-66
2023/04/26 12:11:34;;;;;;;;;;;;;;;;;;5053411;28;19913;-66
2023/04/26 12:14:00;;;;;;;;;;;;;;;;;;5061055;28;19923;-66
2023/04/26 12:16:26;;;;;;;;;;;;;;;;;;5052003;28;19913;-66
2023/04/26 12:18:52;;;;;;;;;;;;;;;;;;5052853;28;20284;-67
2023/04/26 12:21:19;;;;;;;;;;;;;;;;;;5052572;28;19987;-67
2023/04/26 12:23:46;;;;;;;;;;;;;;;;;;5053241;28;19931;-67
2023/04/26 12:26:12;;;;;;;;;;;;;;;;;;5054758;28;19917;-68
2023/04/26 12:28:38;;;;;;;;;;;;;;;;;;5054384;28;19920;-66
2023/04/26 12:31:05;;;;;;;;;;;;;;;;;;5054054;28;19974;-66
2023/04/26 12:33:31;;;;;;;;;;;;;;;;;;5048024;28;19917;-67
2023/04/26 12:35:59;;;;;;;;;;;;;;;;;;5042375;28;19916;-65
2023/04/26 12:38:25;;;;;;;;;;;;;;;;;;5053510;28;19920;-65
2023/04/26 12:40:51;;;;;;;;;;;;;;;;;;5055226;28;20328;-67
2023/04/26 12:43:18;;;;;;;;;;;;;;;;;;5054643;28;19917;-67
2023/04/26 12:45:44;;;;;;;;;;;;;;;;;;5054175;28;19995;-66
2023/04/26 12:48:10;;;;;;;;;;;;;;;;;;5048390;28;19936;-70
2023/04/26 12:50:36;;;;;;;;;;;;;;;;;;5054068;28;19912;-70
2023/04/26 12:53:02;;;;;;;;;;;;;;;;;;5051513;28;19909;-70
2023/04/26 12:55:28;;;;;;;;;;;;;;;;;;5054398;28;20022;-70
2023/04/26 12:57:54;;;;;;;;;;;;;;;;;;5046557;28;19920;-70
2023/04/26 13:00:20;;;;;;;;;;;;;;;;;;5046227;28;20410;-71
2023/04/26 13:02:46;;;;;;;;;;;;;;;;;;5051341;28;19912;-70
2023/04/26 13:05:13;;;;;;;;;;;;;;;;;;5052883;28;20002;-70
2023/04/26 13:07:39;;;;;;;;;;;;;;;;;;5052237;28;19986;-70
2023/04/26 13:10:05;;;;;;;;;;;;;;;;;;5053129;28;19909;-71
2023/04/26 13:12:31;;;;;;;;;;;;;;;;;;5052022;28;19931;-70
2023/04/26 13:14:57;;;;;;;;;;;;;;;;;;5052898;28;19982;-71
2023/04/26 13:17:23;;;;;;;;;;;;;;;;;;5052719;28;19940;-70
2023/04/26 13:19:49;;;;;;;;;;;;;;;;;;5050072;28;19979;-69
2023/04/26 13:22:15;;;;;;;;;;;;;;;;;;5034349;28;19909;-70
2023/04/26 13:24:41;;;;;;;;;;;;;;;;;;5033828;28;19916;-69
2023/04/26 13:27:07;;;;;;;;;;;;;;;;;;5032504;28;19929;-70
2023/04/26 13:29:33;;;;;;;;;;;;;;;;;;5034690;28;19909;-70
2023/04/26 13:31:59;;;;;;;;;;;;;;;;;;5033470;28;20000;-70
2023/04/26 13:34:25;;;;;;;;;;;;;;;;;;5033149;28;19996;-69
2023/04/26 13:36:51;;;;;;;;;;;;;;;;;;5032335;28;20072;-70
2023/04/26 13:39:17;;;;;;;;;;;;;;;;;;5052408;28;19920;-69
2023/04/26 13:41:43;;;;;;;;;;;;;;;;;;5053796;28;20353;-70
2023/04/26 13:44:09;;;;;;;;;;;;;;;;;;5052970;28;19915;-70
2023/04/26 13:46:35;;;;;;;;;;;;;;;;;;5054143;28;19916;-70
2023/04/26 13:49:01;;;;;;;;;;;;;;;;;;5053850;28;19956;-69
2023/04/26 13:51:29;;;;;;;;;;;;;;;;;;5054158;28;20002;-70
2023/04/26 13:54:44;;;;;;;;;;;;;;;;;;5091293;27;19916;-69
2023/04/26 13:57:10;;;;;;;;;;;;;;;;;;5090703;28;19995;-68
2023/04/26 13:59:36;;;;;;;;;;;;;;;;;;5076382;28;19912;-70
2023/04/26 14:02:02;;;;;;;;;;;;;;;;;;5070272;28;19908;-68
2023/04/26 14:08:30;;;;;;;;;;;;;;;;;;5091769;27;20402;-71
2023/04/26 14:12:57;;;;;;;;;;;;;;;;;;5151321;27;19916;-70
2023/04/26 14:15:24;;;;;;;;;;;;;;;;;;5152837;27;19911;-70
2023/04/26 14:17:50;;;;;;;;;;;;;;;;;;5133916;27;19907;-70
2023/04/26 14:21:25;;;;;;;;;;;;;;;;;;5091483;27;19916;-69
2023/04/26 14:23:51;;;;;;;;;;;;;;;;;;5090430;28;19913;-70
2023/04/26 14:26:44;;;;;;;;;;;;;;;;;;5112117;27;19918;-69
2023/04/26 14:30:28;;;;;;;;;;;;;;;;;;5091046;27;20368;-70
2023/04/26 14:36:26;;;;;;;;;;;;;;;;;;5152875;27;20354;-70
2023/04/26 14:42:36;;;;;;;;;;;;;;;;;;5091450;28;19916;-70
2023/04/26 14:45:02;;;;;;;;;;;;;;;;;;5090903;28;19916;-71
2023/04/26 14:51:10;;;;;;;;;;;;;;;;;;5111604;27;19916;-69
2023/04/26 14:54:36;;;;;;;;;;;;;;;;;;5153014;27;19998;-69
2023/04/26 14:59:53;;;;;;;;;;;;;;;;;;5091175;27;19923;-69
2023/04/26 15:02:20;;;;;;;;;;;;;;;;;;5091485;28;19995;-70
2023/04/26 15:04:46;;;;;;;;;;;;;;;;;;5091546;28;19954;-69
2023/04/26 15:08:41;;;;;;;;;;;;;;;;;;5091689;27;19917;-70
2023/04/26 15:11:37;;;;;;;;;;;;;;;;;;5091825;27;19916;-70
2023/04/26 15:14:03;;;;;;;;;;;;;;;;;;5090880;28;19916;-69
2023/04/26 15:18:43;;;;;;;;;;;;;;;;;;5091576;27;19922;-70
2023/04/26 15:23:01;;;;;;;;;;;;;;;;;;5091879;27;19919;-69
2023/04/26 15:25:27;;;;;;;;;;;;;;;;;;5091755;28;19966;-69
2023/04/26 15:30:36;;;;;;;;;;;;;;;;;;5152809;27;19915;-70
2023/04/26 15:34:43;;;;;;;;;;;;;;;;;;5152624;27;19917;-68
2023/04/26 15:37:09;;;;;;;;;;;;;;;;;;5153048;27;20342;-68
2023/04/26 15:42:23;;;;;;;;;;;;;;;;;;5090960;27;20388;-69
2023/04/26 15:44:49;;;;;;;;;;;;;;;;;;5091293;28;20007;-69
2023/04/26 15:47:15;;;;;;;;;;;;;;;;;;5089937;28;20478;-69
2023/04/26 15:49:41;;;;;;;;;;;;;;;;;;5090807;28;19912;-69
2023/04/26 15:52:07;;;;;;;;;;;;;;;;;;5091151;28;19954;-70
2023/04/26 15:54:33;;;;;;;;;;;;;;;;;;5090779;28;19908;-70
2023/04/26 15:57:39;;;;;;;;;;;;;;;;;;5091419;27;19923;-68
2023/04/26 16:00:07;;;;;;;;;;;;;;;;;;5091326;28;19912;-69
2023/04/26 16:02:33;;;;;;;;;;;;;;;;;;5089522;28;19912;-69
2023/04/26 16:04:59;;;;;;;;;;;;;;;;;;5091195;28;19914;-69
2023/04/26 16:07:25;;;;;;;;;;;;;;;;;;5091269;28;19918;-69
2023/04/26 16:11:02;;;;;;;;;;;;;;;;;;5112148;27;20386;-69
2023/04/26 16:13:28;;;;;;;;;;;;;;;;;;5111801;28;19912;-69
2023/04/26 16:15:55;;;;;;;;;;;;;;;;;;5111132;28;19908;-69
2023/04/26 16:19:29;;;;;;;;;;;;;;;;;;5112431;27;20276;-68
2023/04/26 16:21:55;;;;;;;;;;;;;;;;;;5110373;28;19919;-68
2023/04/26 16:24:21;;;;;;;;;;;;;;;;;;5111140;28;20334;-68
2023/04/26 16:29:48;;;;;;;;;;;;;;;;;;5152691;27;19916;-69
2023/04/26 16:32:15;;;;;;;;;;;;;;;;;;5152831;27;19921;-69
2023/04/26 16:34:41;;;;;;;;;;;;;;;;;;5152835;27;19952;-69
2023/04/26 16:37:52;;;;;;;;;;;;;;;;;;5091184;27;20299;-69
2023/04/26 16:40:18;;;;;;;;;;;;;;;;;;5090034;28;20007;-68
2023/04/26 16:44:57;;;;;;;;;;;;;;;;;;5111687;27;19912;-68
2023/04/26 16:47:23;;;;;;;;;;;;;;;;;;5111762;28;20454;-69
2023/04/26 16:49:49;;;;;;;;;;;;;;;;;;5111555;28;19912;-68
2023/04/26 16:52:15;;;;;;;;;;;;;;;;;;5109869;28;19908;-68
2023/04/26 16:54:41;;;;;;;;;;;;;;;;;;5111851;28;19908;-69
2023/04/26 16:57:08;;;;;;;;;;;;;;;;;;5111515;28;20288;-70
2023/04/26 16:59:35;;;;;;;;;;;;;;;;;;5111059;28;19908;-70
2023/04/26 17:02:01;;;;;;;;;;;;;;;;;;5110124;28;20288;-70
2023/04/26 17:04:27;;;;;;;;;;;;;;;;;;5111355;28;19927;-70
2023/04/26 17:06:53;;;;;;;;;;;;;;;;;;5109649;28;19908;-70
2023/04/26 17:09:19;;;;;;;;;;;;;;;;;;5111516;28;20276;-70
2023/04/26 17:11:45;;;;;;;;;;;;;;;;;;5111372;28;19915;-69
2023/04/26 17:14:11;;;;;;;;;;;;;;;;;;5109754;28;20436;-69
2023/04/26 17:16:37;;;;;;;;;;;;;;;;;;5111123;28;19999;-69
2023/04/26 17:19:03;;;;;;;;;;;;;;;;;;5110639;28;19908;-69
2023/04/26 17:21:29;;;;;;;;;;;;;;;;;;5110961;28;19915;-69
2023/04/26 17:23:55;;;;;;;;;;;;;;;;;;5110937;28;19916;-69
2023/04/26 17:26:21;;;;;;;;;;;;;;;;;;5110164;28;19908;-69